Aircraft
UPR1004 PR-ACB A320
SBKP
Viracopos International Airport
SAEZ
Minister Pistarini International Airport
Pilot:: Jair
Aircraft:: A320neo V2
Alternate: SUMU
Network: ivao
FLIGHT DETAILS
Distance: 928nm Duration 02h 33m
Cruise Speed: Flight Level: 35000
Validation: Validated Type Charter
Flight Fuel
ZFW: 42165
Block Fuel/Initial FOB: 16702
Flight Fuel: 6073
Cargo
Passengers: 145
Cargo: 8230
ROUTE
ROUTE: sbkp dct saez
REMARKS:
DATE
Date: 26-05-07
Departure Time: 2053
Cargo: 8230
FLIGHT DETAILS
Crashed: No
Validator Comments: Validado por Rafael
Flight Rating: 100
LANDING ANALYSIS
Landing wind: 270º/23 kt
Landing heading: 112º
Landing VS:: -269 ft/min
Landing IAS:: 121 kt
Landing Force G: 1 G
Landing Bank: 0
Landing Pitch: -5
Landing Flaps: 100
Navigation Lights: ON
Landing Lights: ON
Beacon Lights: ON
Strobe Lights: ON
viserfly

ALTITUDE CHART

viserfly

MAIN EVENTS

DATE EVENT IAS ALTITUDE
2026-05-07 20:51:29 FLYacars version 1.3.5 6 2160
2026-05-07 20:51:29 Aircraft boarding in progress 6 2160
2026-05-07 20:51:29 FLAPS 25% 6 2160
2026-05-07 20:51:29 Navigation Lights ON 6 2160
2026-05-07 20:51:29 Beacon Lights ON 6 2160
2026-05-07 20:51:29 Strobe Lights ON 6 2160
2026-05-07 20:51:29 Landing Lights ON 6 2160
2026-05-07 20:51:29 Taxi Lights ON 6 2160
2026-05-07 20:51:29 Starting Engine 2 6 2160
2026-05-07 20:51:29 Starting Engine 1 6 2160
2026-05-07 20:52:39 Aircraft taxiing to runway 11 2160
2026-05-07 20:53:09 Detected Take-off roll, HDG 324, IAS 161kt, GS 167kt, G-force 1.0g, Pitch -3.2deg, Bank 0.8deg, Wind 000/09kt, Temp 28°C 161 2162
2026-05-07 20:53:09 Airborne 161 2162
2026-05-07 20:53:13 Gear UP, IAS 173kt, GS 179kt, ALT 54ft AGL 173 2200
2026-05-07 20:53:13 Gear DOWN, IAS 173kt, GS 179kt, ALT 57ft AGL 173 2203
2026-05-07 20:53:16 Taxi Lights OFF 179 2307
2026-05-07 20:53:29 Gear UP, IAS 179kt, GS 178kt, ALT 771ft AGL 179 2918
2026-05-07 20:54:01 FLAPS 0% 200kt, ALT 4111ft 200 4111
2026-05-07 20:56:06 Landing Lights OFF 250 10668
2026-05-07 21:07:22 Aircraft on Top Of Climb at 36085ft, IAS 260kt, GS 404kt, HDG 243deg, TAT -47deg, WIND 250/52kt 260 36085
2026-05-07 22:43:42 Aircraft on Top Of Descent at 34499ft, IAS 258kt, GS 480kt, HDG 246deg, TAT -47deg, WIND 341/99kt 258 34499
2026-05-07 23:02:41 Landing Lights ON 189 9421
2026-05-07 23:12:27 FLAPS 25% 180kt, ALT 3602ft 180 3602
2026-05-07 23:12:29 FLAPS 50% 179kt, ALT 3603ft 179 3603
2026-05-07 23:13:34 Gear DOWN, IAS 175kt, GS 157kt, ALT 3600ft AGL 175 3600
2026-05-07 23:13:34 Gear UP, IAS 175kt, GS 157kt, ALT 3600ft AGL 175 3600
2026-05-07 23:13:39 Gear DOWN, IAS 174kt, GS 157kt, ALT 3569ft AGL 174 3600
2026-05-07 23:13:46 Taxi Lights ON 173 3600
2026-05-07 23:13:49 FLAPS 75% 173kt, ALT 3601ft 173 3601
2026-05-07 23:14:09 FLAPS 100% 152kt, ALT 3603ft 152 3603
2026-05-07 23:26:47 Landed at destination with a landing rate of -269fpm, G-force 1.0g, Pitch -5.3deg, Bank -0.1deg, HDG 112deg, IAS 121kt, GS 145kt, Wind 270/23kt, Temp 11°C 121 85
2026-05-07 23:26:47 Incorrect altimeter settings on landing 121 85
2026-05-07 23:27:16 FLAPS 0% 19 83
2026-05-07 23:27:25 Aircraft taxiing to apron 5 82
2026-05-07 23:34:09 Landing Lights OFF 0 78
2026-05-07 23:34:16 Beacon Lights OFF 0 78
2026-05-07 23:34:21 Aircraft at gate/stand, ground services are moving into position, disembarkation has begun. Remaining FOB 10629kg FLYacars v1.3.5 0 78
viserfly

ACARS DATA

DATE IAS GS ALTITUDE FUEL CONSUMED OAT FLIGHT STATUS
2026-05-07 20:51:59 5 0 2160 5 28 BOARDING
2026-05-07 20:52:29 5 0 2160 10 28 BOARDING
2026-05-07 20:52:59 108 111 2159 47 28 TAKEOFF
2026-05-07 20:53:29 180 179 2873 101 26 TAKEOFF
2026-05-07 20:53:59 197 210 4057 150 22 INITIAL CLIMB
2026-05-07 20:54:29 243 281 4781 201 20 CLIMB
2026-05-07 20:54:59 248 295 6465 250 15 CLIMB
2026-05-07 20:55:29 248 292 8306 299 10 CLIMB
2026-05-07 20:55:59 249 300 10206 348 5 CLIMB
2026-05-07 20:56:29 274 341 11300 395 5 CLIMB
2026-05-07 20:56:59 283 359 12610 439 4 CLIMB
2026-05-07 20:57:29 283 370 14016 481 4 CLIMB
2026-05-07 20:57:59 285 378 15424 523 1 CLIMB
2026-05-07 20:58:29 285 383 16928 564 -1 CLIMB
2026-05-07 20:58:59 284 388 18353 603 -4 CLIMB
2026-05-07 20:59:29 285 392 19677 642 -7 CLIMB
2026-05-07 20:59:59 285 393 21068 681 -10 CLIMB
2026-05-07 21:00:29 285 395 22463 720 -13 CLIMB
2026-05-07 21:00:59 284 398 23781 757 -16 CLIMB
2026-05-07 21:01:29 284 402 24990 791 -19 CLIMB
2026-05-07 21:01:59 285 406 26099 825 -22 CLIMB
2026-05-07 21:02:29 285 410 27156 858 -24 CLIMB
2026-05-07 21:02:59 285 414 28148 888 -27 CLIMB
2026-05-07 21:03:29 285 418 29067 916 -29 CLIMB
2026-05-07 21:03:59 285 423 29848 945 -31 CLIMB
2026-05-07 21:04:29 285 427 30664 974 -33 CLIMB
2026-05-07 21:04:59 285 431 31412 1001 -35 CLIMB
2026-05-07 21:05:29 282 427 32440 1028 -38 CLIMB
2026-05-07 21:05:59 273 415 33741 1055 -41 CLIMB
2026-05-07 21:06:29 266 409 34779 1080 -44 CLIMB
2026-05-07 21:06:59 261 404 35676 1103 -46 CLIMB
2026-05-07 21:07:29 260 404 36106 1124 -47 ENROUTE
2026-05-07 21:07:59 259 402 36118 1141 -47 ENROUTE
2026-05-07 21:08:29 259 403 36115 1159 -47 ENROUTE
2026-05-07 21:08:59 259 403 36119 1177 -47 ENROUTE
2026-05-07 21:09:29 259 403 36118 1195 -47 ENROUTE
2026-05-07 21:09:59 258 402 36117 1213 -47 ENROUTE
2026-05-07 21:10:29 257 403 36116 1229 -47 ENROUTE
2026-05-07 21:10:59 259 404 36119 1246 -47 ENROUTE
2026-05-07 21:11:29 259 403 36119 1264 -47 ENROUTE
2026-05-07 21:11:59 259 402 36115 1282 -47 ENROUTE
2026-05-07 21:12:29 258 402 36112 1299 -47 ENROUTE
2026-05-07 21:12:59 258 402 36113 1316 -47 ENROUTE
2026-05-07 21:13:29 259 402 36113 1334 -47 ENROUTE
2026-05-07 21:13:59 259 402 36114 1352 -47 ENROUTE
2026-05-07 21:14:29 258 402 36114 1368 -47 ENROUTE
2026-05-07 21:14:59 258 402 36099 1386 -47 ENROUTE
2026-05-07 21:15:29 258 402 36096 1403 -47 ENROUTE
2026-05-07 21:15:59 258 402 36095 1421 -47 ENROUTE
2026-05-07 21:16:29 259 402 36095 1439 -47 ENROUTE
2026-05-07 21:16:59 259 402 36095 1457 -47 ENROUTE
2026-05-07 21:17:29 258 402 36093 1473 -47 ENROUTE
2026-05-07 21:17:59 258 402 36096 1491 -47 ENROUTE
2026-05-07 21:18:29 258 402 36095 1508 -47 ENROUTE
2026-05-07 21:18:59 258 402 36079 1526 -47 ENROUTE
2026-05-07 21:19:29 258 402 36078 1544 -47 ENROUTE
2026-05-07 21:19:59 258 402 36076 1561 -47 ENROUTE
2026-05-07 21:20:29 259 402 36074 1578 -47 ENROUTE
2026-05-07 21:20:59 258 402 36074 1596 -47 ENROUTE
2026-05-07 21:21:29 258 402 36073 1614 -47 ENROUTE
2026-05-07 21:21:59 258 402 36073 1631 -47 ENROUTE
2026-05-07 21:22:29 258 402 36069 1649 -47 ENROUTE
2026-05-07 21:22:59 258 402 36052 1665 -47 ENROUTE
2026-05-07 21:23:29 258 403 36042 1683 -48 ENROUTE
2026-05-07 21:23:59 258 403 36042 1701 -48 ENROUTE
2026-05-07 21:24:29 258 403 36041 1719 -48 ENROUTE
2026-05-07 21:24:59 258 403 36042 1735 -48 ENROUTE
2026-05-07 21:25:29 258 403 36043 1752 -48 ENROUTE
2026-05-07 21:25:59 258 403 36040 1770 -48 ENROUTE
2026-05-07 21:26:29 257 404 36028 1788 -48 ENROUTE
2026-05-07 21:26:59 258 405 36026 1806 -48 ENROUTE
2026-05-07 21:27:29 258 405 36028 1823 -48 ENROUTE
2026-05-07 21:27:59 258 405 36028 1841 -48 ENROUTE
2026-05-07 21:28:29 258 405 36025 1859 -48 ENROUTE
2026-05-07 21:28:59 258 405 36023 1877 -48 ENROUTE
2026-05-07 21:29:29 258 406 36022 1894 -48 ENROUTE
2026-05-07 21:29:59 258 406 36023 1910 -48 ENROUTE
2026-05-07 21:30:29 258 406 36006 1928 -48 ENROUTE
2026-05-07 21:30:59 258 406 36001 1946 -48 ENROUTE
2026-05-07 21:31:29 258 406 35998 1964 -48 ENROUTE
2026-05-07 21:31:59 258 407 35988 1981 -48 ENROUTE
2026-05-07 21:32:29 258 408 35986 1998 -48 ENROUTE
2026-05-07 21:32:59 258 407 35986 2016 -48 ENROUTE
2026-05-07 21:33:29 258 407 35986 2032 -48 ENROUTE
2026-05-07 21:33:59 258 408 35987 2050 -48 ENROUTE
2026-05-07 21:34:29 257 408 35956 2067 -48 ENROUTE
2026-05-07 21:34:59 258 409 35951 2085 -48 ENROUTE
2026-05-07 21:35:29 258 410 35950 2103 -48 ENROUTE
2026-05-07 21:35:59 258 410 35951 2121 -48 ENROUTE
2026-05-07 21:36:29 258 410 35951 2139 -48 ENROUTE
2026-05-07 21:36:59 258 410 35948 2155 -48 ENROUTE
2026-05-07 21:37:29 257 411 35935 2173 -48 ENROUTE
2026-05-07 21:37:59 259 413 35927 2191 -48 ENROUTE
2026-05-07 21:38:29 258 411 35921 2208 -48 ENROUTE
2026-05-07 21:38:59 258 411 35921 2225 -48 ENROUTE
2026-05-07 21:39:29 257 411 35920 2243 -48 ENROUTE
2026-05-07 21:39:59 257 411 35920 2261 -48 ENROUTE
2026-05-07 21:40:29 257 412 35908 2278 -48 ENROUTE
2026-05-07 21:40:59 258 412 35908 2294 -48 ENROUTE
2026-05-07 21:41:29 258 412 35904 2311 -48 ENROUTE
2026-05-07 21:41:59 258 412 35892 2325 -48 ENROUTE
2026-05-07 21:42:29 258 411 35892 2343 -48 ENROUTE
2026-05-07 21:42:59 256 412 35879 2361 -48 ENROUTE
2026-05-07 21:43:29 258 414 35880 2378 -48 ENROUTE
2026-05-07 21:43:59 258 414 35879 2396 -48 ENROUTE
2026-05-07 21:44:29 257 414 35880 2413 -48 ENROUTE
2026-05-07 21:44:59 258 414 35882 2431 -48 ENROUTE
2026-05-07 21:45:29 257 414 35878 2448 -48 ENROUTE
2026-05-07 21:45:59 257 414 35870 2465 -48 ENROUTE
2026-05-07 21:46:29 258 415 35869 2482 -48 ENROUTE
2026-05-07 21:46:59 258 415 35869 2500 -48 ENROUTE
2026-05-07 21:47:29 257 415 35865 2518 -48 ENROUTE
2026-05-07 21:47:59 257 415 35865 2534 -48 ENROUTE
2026-05-07 21:48:29 256 415 35854 2552 -48 ENROUTE
2026-05-07 21:48:59 257 416 35843 2570 -48 ENROUTE
2026-05-07 21:49:29 258 416 35845 2586 -48 ENROUTE
2026-05-07 21:49:59 257 415 35845 2604 -48 ENROUTE
2026-05-07 21:50:29 257 415 35844 2620 -48 ENROUTE
2026-05-07 21:50:59 258 415 35843 2638 -48 ENROUTE
2026-05-07 21:51:29 257 415 35825 2656 -48 ENROUTE
2026-05-07 21:51:59 257 415 35822 2673 -48 ENROUTE
2026-05-07 21:52:29 257 415 35822 2690 -48 ENROUTE
2026-05-07 21:52:59 257 415 35821 2708 -48 ENROUTE
2026-05-07 21:53:29 254 418 35804 2726 -48 ENROUTE
2026-05-07 21:53:59 258 423 35798 2744 -48 ENROUTE
2026-05-07 21:54:29 257 423 35785 2761 -48 ENROUTE
2026-05-07 21:54:59 257 422 35785 2778 -48 ENROUTE
2026-05-07 21:55:29 257 422 35785 2795 -48 ENROUTE
2026-05-07 21:55:59 257 422 35785 2813 -48 ENROUTE
2026-05-07 21:56:29 257 422 35785 2831 -48 ENROUTE
2026-05-07 21:56:59 256 423 35770 2848 -48 ENROUTE
2026-05-07 21:57:29 257 426 35750 2865 -48 ENROUTE
2026-05-07 21:57:59 257 427 35751 2883 -48 ENROUTE
2026-05-07 21:58:29 257 426 35751 2901 -48 ENROUTE
2026-05-07 21:58:59 257 427 35750 2918 -48 ENROUTE
2026-05-07 21:59:29 258 427 35750 2936 -48 ENROUTE
2026-05-07 21:59:59 258 424 35728 2952 -48 ENROUTE
2026-05-07 22:00:29 257 423 35732 2970 -48 ENROUTE
2026-05-07 22:00:59 257 423 35725 2986 -48 ENROUTE
2026-05-07 22:01:29 257 423 35722 3004 -48 ENROUTE
2026-05-07 22:01:59 257 422 35722 3021 -48 ENROUTE
2026-05-07 22:02:29 258 421 35705 3038 -48 ENROUTE
2026-05-07 22:02:59 257 419 35704 3055 -48 ENROUTE
2026-05-07 22:03:29 257 419 35706 3073 -48 ENROUTE
2026-05-07 22:03:59 257 419 35703 3091 -48 ENROUTE
2026-05-07 22:04:29 257 418 35705 3108 -48 ENROUTE
2026-05-07 22:04:59 256 420 35696 3126 -47 ENROUTE
2026-05-07 22:05:29 256 422 35680 3143 -47 ENROUTE
2026-05-07 22:05:59 257 423 35680 3162 -47 ENROUTE
2026-05-07 22:06:29 257 423 35681 3178 -47 ENROUTE
2026-05-07 22:06:59 257 423 35680 3196 -47 ENROUTE
2026-05-07 22:07:29 257 423 35679 3214 -47 ENROUTE
2026-05-07 22:07:59 255 423 35668 3232 -47 ENROUTE
2026-05-07 22:08:29 254 426 35646 3249 -47 ENROUTE
2026-05-07 22:08:59 256 430 35643 3269 -47 ENROUTE
2026-05-07 22:09:29 257 431 35641 3286 -47 ENROUTE
2026-05-07 22:09:59 258 431 35642 3304 -47 ENROUTE
2026-05-07 22:10:29 257 430 35642 3321 -47 ENROUTE
2026-05-07 22:10:59 256 432 35617 3339 -47 ENROUTE
2026-05-07 22:11:29 257 434 35616 3358 -47 ENROUTE
2026-05-07 22:11:59 257 434 35616 3376 -47 ENROUTE
2026-05-07 22:12:29 256 435 35612 3393 -47 ENROUTE
2026-05-07 22:12:59 257 435 35612 3410 -47 ENROUTE
2026-05-07 22:13:29 257 435 35612 3428 -47 ENROUTE
2026-05-07 22:13:59 257 435 35612 3446 -47 ENROUTE
2026-05-07 22:14:29 257 435 35611 3464 -47 ENROUTE
2026-05-07 22:14:59 257 435 35612 3481 -47 ENROUTE
2026-05-07 22:15:29 256 435 35612 3499 -47 ENROUTE
2026-05-07 22:15:59 255 436 35590 3517 -47 ENROUTE
2026-05-07 22:16:29 256 438 35558 3534 -47 ENROUTE
2026-05-07 22:16:59 257 438 35559 3552 -47 ENROUTE
2026-05-07 22:17:29 257 438 35558 3569 -47 ENROUTE
2026-05-07 22:17:59 256 438 35558 3586 -47 ENROUTE
2026-05-07 22:18:29 257 438 35557 3604 -47 ENROUTE
2026-05-07 22:18:59 255 439 35529 3622 -48 ENROUTE
2026-05-07 22:19:29 256 441 35519 3639 -48 ENROUTE
2026-05-07 22:19:59 256 442 35514 3658 -48 ENROUTE
2026-05-07 22:20:29 257 442 35513 3674 -48 ENROUTE
2026-05-07 22:20:59 256 442 35514 3692 -48 ENROUTE
2026-05-07 22:21:29 255 442 35498 3710 -48 ENROUTE
2026-05-07 22:21:59 256 444 35482 3727 -47 ENROUTE
2026-05-07 22:22:29 256 445 35480 3745 -47 ENROUTE
2026-05-07 22:22:59 256 445 35480 3763 -47 ENROUTE
2026-05-07 22:23:29 257 444 35483 3780 -48 ENROUTE
2026-05-07 22:23:59 256 443 35484 3798 -48 ENROUTE
2026-05-07 22:24:29 255 445 35456 3814 -48 ENROUTE
2026-05-07 22:24:59 256 446 35454 3832 -48 ENROUTE
2026-05-07 22:25:29 256 446 35452 3850 -48 ENROUTE
2026-05-07 22:25:59 256 446 35452 3868 -48 ENROUTE
2026-05-07 22:26:29 256 446 35454 3886 -48 ENROUTE
2026-05-07 22:26:59 254 448 35434 3903 -47 ENROUTE
2026-05-07 22:27:29 256 452 35430 3922 -47 ENROUTE
2026-05-07 22:27:59 256 452 35430 3940 -47 ENROUTE
2026-05-07 22:28:29 256 452 35430 3956 -47 ENROUTE
2026-05-07 22:28:59 256 452 35430 3974 -47 ENROUTE
2026-05-07 22:29:29 255 453 35412 3991 -47 ENROUTE
2026-05-07 22:29:59 256 455 35403 4009 -47 ENROUTE
2026-05-07 22:30:29 254 455 35380 4028 -47 ENROUTE
2026-05-07 22:30:59 256 458 35361 4046 -47 ENROUTE
2026-05-07 22:31:29 256 458 35359 4062 -47 ENROUTE
2026-05-07 22:31:59 254 458 35356 4079 -48 ENROUTE
2026-05-07 22:32:29 255 461 35332 4097 -48 ENROUTE
2026-05-07 22:32:59 256 462 35332 4116 -48 ENROUTE
2026-05-07 22:33:29 256 462 35331 4133 -48 ENROUTE
2026-05-07 22:33:59 255 462 35320 4150 -48 ENROUTE
2026-05-07 22:34:29 256 463 35305 4168 -48 ENROUTE
2026-05-07 22:34:59 254 468 35260 4186 -48 ENROUTE
2026-05-07 22:35:29 256 470 35257 4204 -48 ENROUTE
2026-05-07 22:35:59 256 470 35258 4222 -48 ENROUTE
2026-05-07 22:36:29 256 470 35256 4238 -48 ENROUTE
2026-05-07 22:36:59 256 470 35256 4256 -48 ENROUTE
2026-05-07 22:37:29 254 473 35213 4274 -48 ENROUTE
2026-05-07 22:37:59 256 476 35202 4292 -48 ENROUTE
2026-05-07 22:38:29 256 476 35203 4310 -48 ENROUTE
2026-05-07 22:38:59 256 476 35202 4327 -48 ENROUTE
2026-05-07 22:39:29 256 476 35201 4343 -48 ENROUTE
2026-05-07 22:39:59 256 476 35202 4361 -48 ENROUTE
2026-05-07 22:40:29 256 476 35200 4379 -48 ENROUTE
2026-05-07 22:40:59 255 477 35176 4395 -48 ENROUTE
2026-05-07 22:41:29 256 478 35167 4413 -48 ENROUTE
2026-05-07 22:41:59 255 478 35167 4431 -49 ENROUTE
2026-05-07 22:42:29 255 480 35023 4448 -48 ENROUTE
2026-05-07 22:42:59 256 481 35018 4465 -48 ENROUTE
2026-05-07 22:43:29 256 481 34876 4481 -48 DESCENT
2026-05-07 22:43:59 259 477 33970 4490 -46 DESCENT
2026-05-07 22:44:29 258 468 33026 4493 -44 DESCENT
2026-05-07 22:44:59 256 461 32080 4498 -42 DESCENT
2026-05-07 22:45:29 256 454 31137 4501 -40 DESCENT
2026-05-07 22:45:59 256 448 30189 4504 -39 DESCENT
2026-05-07 22:46:29 257 442 29245 4509 -36 DESCENT
2026-05-07 22:46:59 259 436 28297 4512 -34 DESCENT
2026-05-07 22:47:29 258 430 27350 4516 -33 DESCENT
2026-05-07 22:47:59 257 425 26404 4520 -30 DESCENT
2026-05-07 22:48:29 259 421 25460 4523 -28 DESCENT
2026-05-07 22:48:59 261 416 24509 4527 -26 DESCENT
2026-05-07 22:49:29 261 410 23562 4532 -24 DESCENT
2026-05-07 22:49:59 264 404 22613 4536 -22 DESCENT
2026-05-07 22:50:29 267 398 21667 4539 -20 DESCENT
2026-05-07 22:50:59 269 390 20717 4543 -19 DESCENT
2026-05-07 22:51:29 271 382 19773 4547 -17 DESCENT
2026-05-07 22:51:59 275 373 18825 4552 -16 DESCENT
2026-05-07 22:52:29 275 363 17871 4556 -14 DESCENT
2026-05-07 22:52:59 275 354 16926 4560 -13 DESCENT
2026-05-07 22:53:29 272 345 15982 4565 -12 DESCENT
2026-05-07 22:53:59 271 337 15037 4569 -10 DESCENT
2026-05-07 22:54:29 270 329 14091 4574 -9 DESCENT
2026-05-07 22:54:59 268 322 13145 4578 -7 DESCENT
2026-05-07 22:55:29 263 316 12200 4582 -5 DESCENT
2026-05-07 22:55:59 258 312 11258 4587 -3 DESCENT
2026-05-07 22:56:29 254 309 10314 4593 -1 DESCENT
2026-05-07 22:56:59 243 298 9613 4598 0 DESCENT
2026-05-07 22:57:29 216 266 9563 4603 0 ENROUTE
2026-05-07 22:57:59 194 240 9561 4611 0 ENROUTE
2026-05-07 22:58:29 193 240 9561 4636 0 ENROUTE
2026-05-07 22:58:59 193 240 9560 4662 0 ENROUTE
2026-05-07 22:59:29 193 240 9561 4688 0 ENROUTE
2026-05-07 22:59:59 193 240 9561 4713 0 ENROUTE
2026-05-07 23:00:29 193 240 9560 4739 0 ENROUTE
2026-05-07 23:00:59 193 241 9561 4765 0 ENROUTE
2026-05-07 23:01:29 193 240 9557 4790 0 ENROUTE
2026-05-07 23:01:59 196 238 9547 4814 -1 ENROUTE
2026-05-07 23:02:29 189 229 9537 4835 -1 ENROUTE
2026-05-07 23:02:59 190 226 9135 4846 0 DESCENT
2026-05-07 23:03:29 190 222 8637 4852 0 DESCENT
2026-05-07 23:03:59 194 219 8143 4858 0 DESCENT
2026-05-07 23:04:29 195 215 7641 4863 0 DESCENT
2026-05-07 23:04:59 197 211 7146 4868 1 DESCENT
2026-05-07 23:05:29 198 206 6646 4874 1 DESCENT
2026-05-07 23:05:59 194 201 6144 4879 2 DESCENT
2026-05-07 23:06:29 195 197 5647 4884 2 DESCENT
2026-05-07 23:06:59 194 192 5154 4890 3 DESCENT
2026-05-07 23:07:29 195 188 4652 4896 3 DESCENT
2026-05-07 23:07:59 196 184 4157 4901 4 DESCENT
2026-05-07 23:08:29 196 180 3669 4907 4 DESCENT
2026-05-07 23:08:59 186 170 3603 4924 5 ENROUTE
2026-05-07 23:09:29 189 170 3602 4949 5 ENROUTE
2026-05-07 23:09:59 187 170 3603 4976 5 ENROUTE
2026-05-07 23:10:29 187 171 3602 5002 5 ENROUTE
2026-05-07 23:10:59 182 165 3603 5024 5 ENROUTE
2026-05-07 23:11:29 181 162 3603 5049 5 ENROUTE
2026-05-07 23:11:59 180 161 3601 5075 5 ENROUTE
2026-05-07 23:12:29 179 163 3602 5101 5 ENROUTE
2026-05-07 23:12:59 173 157 3607 5129 5 ENROUTE
2026-05-07 23:13:29 175 158 3600 5159 5 ENROUTE
2026-05-07 23:13:59 167 151 3607 5190 5 ENROUTE
2026-05-07 23:14:29 136 116 3627 5211 5 ENROUTE
2026-05-07 23:14:59 136 118 3599 5247 5 ENROUTE
2026-05-07 23:15:29 137 119 3604 5284 5 ENROUTE
2026-05-07 23:15:59 138 117 3354 5313 5 DESCENT
2026-05-07 23:16:29 138 114 2852 5332 5 DESCENT
2026-05-07 23:16:59 138 113 2621 5361 6 ENROUTE
2026-05-07 23:17:29 137 111 2616 5395 6 ENROUTE
2026-05-07 23:17:59 137 112 2615 5430 6 ENROUTE
2026-05-07 23:18:29 137 112 2616 5467 6 ENROUTE
2026-05-07 23:18:59 137 113 2589 5502 6 DESCENT
2026-05-07 23:19:29 137 112 2226 5529 7 APPROACH
2026-05-07 23:19:59 136 113 1783 5548 8 APPROACH
2026-05-07 23:20:29 136 115 1637 5579 8 APPROACH
2026-05-07 23:20:59 137 116 1639 5616 8 APPROACH
2026-05-07 23:21:29 137 114 1637 5649 8 APPROACH
2026-05-07 23:21:59 136 115 1639 5685 8 APPROACH
2026-05-07 23:22:29 136 117 1636 5720 8 APPROACH
2026-05-07 23:22:59 136 125 1637 5755 8 APPROACH
2026-05-07 23:23:29 137 126 1638 5790 8 APPROACH
2026-05-07 23:23:59 136 158 1643 5826 8 APPROACH
2026-05-07 23:24:29 138 164 1628 5860 8 APPROACH
2026-05-07 23:24:59 137 164 1403 5889 9 APPROACH
2026-05-07 23:25:29 139 162 953 5909 10 ON FINAL
2026-05-07 23:25:59 140 158 509 5927 11 ON FINAL
2026-05-07 23:26:29 133 153 121 5948 11 ON FINAL
2026-05-07 23:26:59 101 121 86 5968 11 ON FINAL
2026-05-07 23:27:29 0 19 83 5985 11 TAXI TO APRON
2026-05-07 23:27:59 10 15 84 5990 11 TAXI TO APRON
2026-05-07 23:28:29 36 17 78 5995 11 TAXI TO APRON
2026-05-07 23:28:59 40 21 78 6001 11 TAXI TO APRON
2026-05-07 23:29:29 44 26 79 6007 11 TAXI TO APRON
2026-05-07 23:29:59 26 7 83 6013 11 TAXI TO APRON
2026-05-07 23:30:29 33 13 82 6020 11 TAXI TO APRON
2026-05-07 23:30:59 34 19 79 6027 11 TAXI TO APRON
2026-05-07 23:31:29 37 23 78 6033 11 TAXI TO APRON
2026-05-07 23:31:59 1 0 78 6039 11 TAXI TO APRON
2026-05-07 23:32:29 3 2 78 6045 11 TAXI TO APRON
2026-05-07 23:32:59 1 0 78 6051 11 TAXI TO APRON
2026-05-07 23:33:29 8 19 78 6066 11 TAXI TO APRON
2026-05-07 23:33:59 0 0 78 6071 11 TAXI TO APRON
  • Join our VA!

    It has been 11 years of great learning, friendships, and stories.

  • Sign up now!